sensor_id;sensor_type;location;lat;lon;timestamp;pressure;altitude;pressure_sealevel;temperature;humidity
48553;BME280;34335;51.566;6.994;2023-05-11T00:00:06;100792.75;;;12.80;100.00
48553;BME280;34335;51.566;6.994;2023-05-11T00:02:32;100789.22;;;12.84;100.00
48553;BME280;34335;51.566;6.994;2023-05-11T00:04:57;100790.84;;;12.97;100.00
48553;BME280;34335;51.566;6.994;2023-05-11T00:07:23;100781.16;;;13.08;100.00
48553;BME280;34335;51.566;6.994;2023-05-11T00:09:49;100782.13;;;12.98;100.00
48553;BME280;34335;51.566;6.994;2023-05-11T00:12:14;100780.38;;;12.97;100.00
48553;BME280;34335;51.566;6.994;2023-05-11T00:14:40;100781.22;;;13.02;100.00
48553;BME280;34335;51.566;6.994;2023-05-11T00:17:05;100788.09;;;13.11;100.00
48553;BME280;34335;51.566;6.994;2023-05-11T00:19:30;100784.63;;;13.09;100.00
48553;BME280;34335;51.566;6.994;2023-05-11T00:21:57;100795.91;;;13.13;100.00
48553;BME280;34335;51.566;6.994;2023-05-11T00:24:23;100796.94;;;12.98;100.00
48553;BME280;34335;51.566;6.994;2023-05-11T00:26:48;100796.94;;;12.94;100.00
48553;BME280;34335;51.566;6.994;2023-05-11T00:29:14;100801.34;;;12.91;100.00
48553;BME280;34335;51.566;6.994;2023-05-11T00:31:39;100792.69;;;12.87;100.00
48553;BME280;34335;51.566;6.994;2023-05-11T00:34:04;100790.09;;;12.84;100.00
48553;BME280;34335;51.566;6.994;2023-05-11T00:36:30;100791.00;;;12.78;100.00
48553;BME280;34335;51.566;6.994;2023-05-11T00:38:55;100791.00;;;12.75;100.00
48553;BME280;34335;51.566;6.994;2023-05-11T00:41:20;100794.50;;;12.74;100.00
48553;BME280;34335;51.566;6.994;2023-05-11T00:43:46;100789.25;;;12.77;100.00
48553;BME280;34335;51.566;6.994;2023-05-11T00:46:11;100793.75;;;12.60;100.00
48553;BME280;34335;51.566;6.994;2023-05-11T00:48:36;100787.66;;;12.62;100.00
48553;BME280;34335;51.566;6.994;2023-05-11T00:51:03;100794.53;;;12.70;100.00
48553;BME280;34335;51.566;6.994;2023-05-11T00:53:28;100787.53;;;12.76;100.00
48553;BME280;34335;51.566;6.994;2023-05-11T00:55:53;100790.16;;;12.75;100.00
48553;BME280;34335;51.566;6.994;2023-05-11T00:58:19;100797.94;;;12.80;100.00
48553;BME280;34335;51.566;6.994;2023-05-11T01:00:44;100798.94;;;12.68;100.00
48553;BME280;34335;51.566;6.994;2023-05-11T01:03:12;100794.56;;;12.68;100.00
48553;BME280;34335;51.566;6.994;2023-05-11T01:05:51;100796.38;;;12.60;100.00
48553;BME280;34335;51.566;6.994;2023-05-11T01:08:21;100804.25;;;12.54;100.00
48553;BME280;34335;51.566;6.994;2023-05-11T01:10:57;100799.00;;;12.57;100.00
48553;BME280;34335;51.566;6.994;2023-05-11T01:13:32;100799.94;;;12.46;100.00
48553;BME280;34335;51.566;6.994;2023-05-11T01:16:01;100800.81;;;12.49;100.00
48553;BME280;34335;51.566;6.994;2023-05-11T01:18:36;100795.59;;;12.47;100.00
48553;BME280;34335;51.566;6.994;2023-05-11T01:21:04;100801.66;;;12.54;100.00
48553;BME280;34335;51.566;6.994;2023-05-11T01:26:44;100805.09;;;12.54;100.00
48553;BME280;34335;51.566;6.994;2023-05-11T01:29:40;100797.38;;;12.40;100.00
48553;BME280;34335;51.566;6.994;2023-05-11T01:32:23;100797.38;;;12.43;100.00
48553;BME280;34335;51.566;6.994;2023-05-11T01:35:17;100798.28;;;12.38;100.00
48553;BME280;34335;51.566;6.994;2023-05-11T01:37:46;100803.44;;;12.44;100.00
48553;BME280;34335;51.566;6.994;2023-05-11T01:40:15;100808.66;;;12.45;100.00
48553;BME280;34335;51.566;6.994;2023-05-11T01:42:44;100806.94;;;12.44;100.00
48553;BME280;34335;51.566;6.994;2023-05-11T01:45:12;100810.38;;;12.50;100.00
48553;BME280;34335;51.566;6.994;2023-05-11T01:47:40;100803.41;;;12.49;100.00
48553;BME280;34335;51.566;6.994;2023-05-11T01:50:07;100808.66;;;12.45;100.00
48553;BME280;34335;51.566;6.994;2023-05-11T01:52:33;100814.72;;;12.47;100.00
48553;BME280;34335;51.566;6.994;2023-05-11T01:55:01;100818.16;;;12.57;100.00
48553;BME280;34335;51.566;6.994;2023-05-11T01:57:28;100819.06;;;12.49;100.00
48553;BME280;34335;51.566;6.994;2023-05-11T01:59:55;100810.38;;;12.50;100.00
48553;BME280;34335;51.566;6.994;2023-05-11T02:02:22;100816.44;;;12.55;100.00
48553;BME280;34335;51.566;6.994;2023-05-11T02:04:48;100809.41;;;12.63;100.00
48553;BME280;34335;51.566;6.994;2023-05-11T02:07:15;100805.88;;;12.69;100.00
48553;BME280;34335;51.566;6.994;2023-05-11T02:09:42;100811.91;;;12.75;100.00
48553;BME280;34335;51.566;6.994;2023-05-11T02:12:09;100811.91;;;12.74;100.00
48553;BME280;34335;51.566;6.994;2023-05-11T02:14:36;100819.78;;;12.69;100.00
48553;BME280;34335;51.566;6.994;2023-05-11T02:17:03;100816.38;;;12.61;100.00
48553;BME280;34335;51.566;6.994;2023-05-11T02:19:31;100814.66;;;12.58;100.00
48553;BME280;34335;51.566;6.994;2023-05-11T02:21:58;100819.91;;;12.52;100.00
48553;BME280;34335;51.566;6.994;2023-05-11T02:24:26;100819.06;;;12.49;100.00
48553;BME280;34335;51.566;6.994;2023-05-11T02:26:52;100821.69;;;12.44;100.00
48553;BME280;34335;51.566;6.994;2023-05-11T02:29:18;100820.84;;;12.43;100.00
48553;BME280;34335;51.566;6.994;2023-05-11T02:31:45;100822.59;;;12.38;100.00
48553;BME280;34335;51.566;6.994;2023-05-11T02:34:26;100817.31;;;12.47;100.00
48553;BME280;34335;51.566;6.994;2023-05-11T02:36:55;100820.75;;;12.54;100.00
48553;BME280;34335;51.566;6.994;2023-05-11T02:39:33;100820.78;;;12.50;100.00
48553;BME280;34335;51.566;6.994;2023-05-11T02:42:05;100818.19;;;12.46;100.00
48553;BME280;34335;51.566;6.994;2023-05-11T02:44:34;100821.72;;;12.45;100.00
48553;BME280;34335;51.566;6.994;2023-05-11T02:47:02;100825.16;;;12.47;100.00
48553;BME280;34335;51.566;6.994;2023-05-11T02:49:30;100823.44;;;12.48;100.00
48553;BME280;34335;51.566;6.994;2023-05-11T02:51:58;100819.03;;;12.53;100.00
48553;BME280;34335;51.566;6.994;2023-05-11T02:54:25;100826.88;;;12.49;100.00
48553;BME280;34335;51.566;6.994;2023-05-11T02:56:51;100819.09;;;12.45;100.00
48553;BME280;34335;51.566;6.994;2023-05-11T02:59:17;100819.94;;;12.49;100.00
48553;BME280;34335;51.566;6.994;2023-05-11T03:01:43;100820.84;;;12.43;100.00
48553;BME280;34335;51.566;6.994;2023-05-11T03:04:09;100822.63;;;12.37;100.00
48553;BME280;34335;51.566;6.994;2023-05-11T03:06:34;100823.53;;;12.31;100.00
48553;BME280;34335;51.566;6.994;2023-05-11T03:09:00;100819.19;;;12.30;100.00
48553;BME280;34335;51.566;6.994;2023-05-11T03:11:26;100829.66;;;12.24;100.00
48553;BME280;34335;51.566;6.994;2023-05-11T03:13:52;100823.53;;;12.28;100.00
48553;BME280;34335;51.566;6.994;2023-05-11T03:16:18;100827.09;;;12.16;100.00
48553;BME280;34335;51.566;6.994;2023-05-11T03:18:44;100819.28;;;12.14;100.00
48553;BME280;34335;51.566;6.994;2023-05-11T03:21:10;100823.59;;;12.19;100.00
48553;BME280;34335;51.566;6.994;2023-05-11T03:23:36;100822.75;;;12.15;100.00
48553;BME280;34335;51.566;6.994;2023-05-11T03:26:05;100828.00;;;12.06;100.00
48553;BME280;34335;51.566;6.994;2023-05-11T03:28:30;100817.53;;;12.12;100.00
48553;BME280;34335;51.566;6.994;2023-05-11T03:30:56;100822.78;;;12.07;100.00
48553;BME280;34335;51.566;6.994;2023-05-11T03:33:21;100822.81;;;12.04;100.00
48553;BME280;34335;51.566;6.994;2023-05-11T03:35:49;100822.78;;;12.07;100.00
48553;BME280;34335;51.566;6.994;2023-05-11T03:38:15;100821.09;;;12.00;100.00
48553;BME280;34335;51.566;6.994;2023-05-11T03:40:41;100826.25;;;12.12;100.00
48553;BME280;34335;51.566;6.994;2023-05-11T03:43:10;100820.16;;;12.13;100.00
48553;BME280;34335;51.566;6.994;2023-05-11T03:45:37;100815.81;;;12.15;100.00
48553;BME280;34335;51.566;6.994;2023-05-11T03:48:04;100807.94;;;12.19;100.00
48553;BME280;34335;51.566;6.994;2023-05-11T03:50:30;100819.19;;;12.30;100.00
48553;BME280;34335;51.566;6.994;2023-05-11T03:52:57;100812.28;;;12.26;100.00
48553;BME280;34335;51.566;6.994;2023-05-11T03:55:23;100814.00;;;12.25;100.00
48553;BME280;34335;51.566;6.994;2023-05-11T03:57:48;100814.09;;;12.08;100.00
48553;BME280;34335;51.566;6.994;2023-05-11T04:00:14;100811.50;;;12.07;100.00
48553;BME280;34335;51.566;6.994;2023-05-11T04:02:40;100810.63;;;12.09;100.00
48553;BME280;34335;51.566;6.994;2023-05-11T04:05:10;100802.75;;;12.20;100.00
48553;BME280;34335;51.566;6.994;2023-05-11T04:07:37;100807.03;;;12.27;100.00
48553;BME280;34335;51.566;6.994;2023-05-11T04:10:03;100804.34;;;12.38;100.00
48553;BME280;34335;51.566;6.994;2023-05-11T04:12:29;100803.50;;;12.38;100.00
48553;BME280;34335;51.566;6.994;2023-05-11T04:14:54;100802.63;;;12.39;100.00
48553;BME280;34335;51.566;6.994;2023-05-11T04:17:19;100797.41;;;12.37;100.00
48553;BME280;34335;51.566;6.994;2023-05-11T04:19:44;100798.28;;;12.35;100.00
48553;BME280;34335;51.566;6.994;2023-05-11T04:22:10;100795.69;;;12.35;100.00
48553;BME280;34335;51.566;6.994;2023-05-11T04:24:36;100807.88;;;12.31;100.00
48553;BME280;34335;51.566;6.994;2023-05-11T04:27:02;100802.72;;;12.25;100.00
48553;BME280;34335;51.566;6.994;2023-05-11T04:29:28;100803.63;;;12.19;100.00
48553;BME280;34335;51.566;6.994;2023-05-11T04:31:53;100812.38;;;12.04;100.00
48553;BME280;34335;51.566;6.994;2023-05-11T04:34:19;100817.53;;;12.12;100.00
48553;BME280;34335;51.566;6.994;2023-05-11T04:36:48;100813.22;;;12.12;100.00
48553;BME280;34335;51.566;6.994;2023-05-11T04:39:14;100811.41;;;12.21;100.00
48553;BME280;34335;51.566;6.994;2023-05-11T04:41:43;100814.03;;;12.21;100.00
48553;BME280;34335;51.566;6.994;2023-05-11T04:44:09;100824.44;;;12.24;100.00
48553;BME280;34335;51.566;6.994;2023-05-11T04:46:34;100828.81;;;12.17;100.00
48553;BME280;34335;51.566;6.994;2023-05-11T04:49:01;100829.72;;;12.14;100.00
48553;BME280;34335;51.566;6.994;2023-05-11T04:51:26;100825.38;;;12.13;100.00
48553;BME280;34335;51.566;6.994;2023-05-11T04:53:51;100827.03;;;12.22;100.00
48553;BME280;34335;51.566;6.994;2023-05-11T04:56:16;100834.03;;;12.20;100.00
48553;BME280;34335;51.566;6.994;2023-05-11T04:58:42;100831.41;;;12.19;100.00
48553;BME280;34335;51.566;6.994;2023-05-11T05:01:07;100832.25;;;12.22;100.00
48553;BME280;34335;51.566;6.994;2023-05-11T05:03:33;100834.88;;;12.21;100.00
48553;BME280;34335;51.566;6.994;2023-05-11T05:05:58;100840.97;;;12.26;100.00
48553;BME280;34335;51.566;6.994;2023-05-11T05:08:23;100833.09;;;12.35;100.00
48553;BME280;34335;51.566;6.994;2023-05-11T05:10:48;100850.47;;;12.30;100.00
48553;BME280;34335;51.566;6.994;2023-05-11T05:13:14;100848.78;;;12.23;100.00
48553;BME280;34335;51.566;6.994;2023-05-11T05:15:41;100855.69;;;12.30;100.00
48553;BME280;34335;51.566;6.994;2023-05-11T05:18:06;100852.16;;;12.40;100.00
48553;BME280;34335;51.566;6.994;2023-05-11T05:20:31;100853.03;;;12.39;100.00
48553;BME280;34335;51.566;6.994;2023-05-11T05:22:59;100850.41;;;12.45;100.00
48553;BME280;34335;51.566;6.994;2023-05-11T05:25:24;100851.22;;;12.51;100.00
48553;BME280;34335;51.566;6.994;2023-05-11T05:27:50;100850.38;;;12.49;100.00
48553;BME280;34335;51.566;6.994;2023-05-11T05:30:15;100856.47;;;12.46;100.00
48553;BME280;34335;51.566;6.994;2023-05-11T05:32:40;100852.03;;;12.56;100.00
48553;BME280;34335;51.566;6.994;2023-05-11T05:35:06;100859.00;;;12.57;100.00
48553;BME280;34335;51.566;6.994;2023-05-11T05:37:33;100866.00;;;12.49;100.00
48553;BME280;34335;51.566;6.994;2023-05-11T05:39:58;100862.50;;;12.54;100.00
48553;BME280;34335;51.566;6.994;2023-05-11T05:42:23;100862.53;;;12.50;100.00
48553;BME280;34335;51.566;6.994;2023-05-11T05:44:49;100865.13;;;12.53;100.00
48553;BME280;34335;51.566;6.994;2023-05-11T05:47:15;100867.63;;;12.65;100.00
48553;BME280;34335;51.566;6.994;2023-05-11T05:49:40;100867.63;;;12.68;100.00
48553;BME280;34335;51.566;6.994;2023-05-11T05:52:06;100868.41;;;12.80;100.00
48553;BME280;34335;51.566;6.994;2023-05-11T05:54:31;100872.78;;;12.77;100.00
48553;BME280;34335;51.566;6.994;2023-05-11T05:56:56;100873.72;;;12.70;100.00
48553;BME280;34335;51.566;6.994;2023-05-11T05:59:22;100878.06;;;12.68;100.00
48553;BME280;34335;51.566;6.994;2023-05-11T06:01:49;100877.22;;;12.65;100.00
48553;BME280;34335;51.566;6.994;2023-05-11T06:04:15;100886.81;;;12.58;100.00
48553;BME280;34335;51.566;6.994;2023-05-11T06:06:40;100886.78;;;12.69;100.00
48553;BME280;34335;51.566;6.994;2023-05-11T06:09:06;100886.69;;;12.76;100.00
48553;BME280;34335;51.566;6.994;2023-05-11T06:11:31;100884.19;;;12.66;100.00
48553;BME280;34335;51.566;6.994;2023-05-11T06:13:56;100890.28;;;12.61;100.00
48553;BME280;34335;51.566;6.994;2023-05-11T06:16:22;100892.97;;;12.51;100.00
48553;BME280;34335;51.566;6.994;2023-05-11T06:18:49;100886.88;;;12.52;100.00
48553;BME280;34335;51.566;6.994;2023-05-11T06:21:14;100888.56;;;12.62;100.00
48553;BME280;34335;51.566;6.994;2023-05-11T06:23:40;100887.63;;;12.66;100.00
48553;BME280;34335;51.566;6.994;2023-05-11T06:26:05;100891.06;;;12.74;100.00
48553;BME280;34335;51.566;6.994;2023-05-11T06:28:30;100887.59;;;12.77;100.00
48553;BME280;34335;51.566;6.994;2023-05-11T06:30:56;100883.91;;;13.00;100.00
48553;BME280;34335;51.566;6.994;2023-05-11T06:33:25;100882.13;;;13.06;100.00
48553;BME280;34335;51.566;6.994;2023-05-11T06:35:50;100885.34;;;13.36;100.00
48553;BME280;34335;51.566;6.994;2023-05-11T06:38:16;100882.75;;;13.39;100.00
48553;BME280;34335;51.566;6.994;2023-05-11T06:40:41;100880.06;;;13.46;100.00
48553;BME280;34335;51.566;6.994;2023-05-11T06:43:06;100882.66;;;13.46;100.00
48553;BME280;34335;51.566;6.994;2023-05-11T06:45:32;100884.41;;;13.47;100.00
48553;BME280;34335;51.566;6.994;2023-05-11T06:47:57;100882.00;;;13.22;100.00
48553;BME280;34335;51.566;6.994;2023-05-11T06:50:23;100879.25;;;13.37;100.00
48553;BME280;34335;51.566;6.994;2023-05-11T06:52:48;100881.00;;;13.35;100.00
48553;BME280;34335;51.566;6.994;2023-05-11T06:55:14;100880.06;;;13.43;100.00
48553;BME280;34335;51.566;6.994;2023-05-11T06:57:39;100884.47;;;13.40;100.00
48553;BME280;34335;51.566;6.994;2023-05-11T07:00:06;100889.59;;;13.50;100.00
48553;BME280;34335;51.566;6.994;2023-05-11T07:02:31;100888.56;;;13.63;100.00
48553;BME280;34335;51.566;6.994;2023-05-11T07:04:57;100886.06;;;13.54;100.00
48553;BME280;34335;51.566;6.994;2023-05-11T07:07:22;100883.16;;;13.80;100.00
48553;BME280;34335;51.566;6.994;2023-05-11T07:09:48;100880.19;;;14.10;100.00
48553;BME280;34335;51.566;6.994;2023-05-11T07:12:13;100877.50;;;14.14;100.00
48553;BME280;34335;51.566;6.994;2023-05-11T07:14:39;100886.16;;;14.21;100.00
48553;BME280;34335;51.566;6.994;2023-05-11T07:17:04;100881.69;;;14.29;100.00
48553;BME280;34335;51.566;6.994;2023-05-11T07:19:29;100883.13;;;14.52;100.00
48553;BME280;34335;51.566;6.994;2023-05-11T07:21:54;100883.97;;;14.54;100.00
48553;BME280;34335;51.566;6.994;2023-05-11T07:24:20;100877.75;;;14.61;100.00
48553;BME280;34335;51.566;6.994;2023-05-11T07:26:45;100886.81;;;14.98;100.00
48553;BME280;34335;51.566;6.994;2023-05-11T07:29:10;100879.81;;;15.00;100.00
48553;BME280;34335;51.566;6.994;2023-05-11T07:31:36;100882.06;;;15.20;100.00
48553;BME280;34335;51.566;6.994;2023-05-11T07:34:01;100880.91;;;15.38;100.00
48553;BME280;34335;51.566;6.994;2023-05-11T07:36:26;100880.00;;;15.38;100.00
48553;BME280;34335;51.566;6.994;2023-05-11T07:38:52;100882.06;;;15.69;100.00
48553;BME280;34335;51.566;6.994;2023-05-11T07:41:17;100883.56;;;15.81;100.00
48553;BME280;34335;51.566;6.994;2023-05-11T07:43:43;100878.88;;;15.98;100.00
48553;BME280;34335;51.566;6.994;2023-05-11T07:46:08;100885.84;;;16.01;100.00
48553;BME280;34335;51.566;6.994;2023-05-11T07:48:34;100870.56;;;16.20;100.00
48553;BME280;34335;51.566;6.994;2023-05-11T07:50:59;100879.22;;;15.81;100.00
48553;BME280;34335;51.566;6.994;2023-05-11T07:53:26;100868.97;;;16.13;100.00
48553;BME280;34335;51.566;6.994;2023-05-11T07:55:51;100877.16;;;15.97;100.00
48553;BME280;34335;51.566;6.994;2023-05-11T07:58:16;100877.53;;;15.30;100.00
48553;BME280;34335;51.566;6.994;2023-05-11T08:00:41;100875.16;;;16.10;100.00
48553;BME280;34335;51.566;6.994;2023-05-11T08:03:07;100870.88;;;16.45;100.00
48553;BME280;34335;51.566;6.994;2023-05-11T08:05:32;100866.53;;;16.82;100.00
48553;BME280;34335;51.566;6.994;2023-05-11T08:08:01;100867.25;;;16.51;100.00
48553;BME280;34335;51.566;6.994;2023-05-11T08:10:26;100871.09;;;16.36;100.00
48553;BME280;34335;51.566;6.994;2023-05-11T08:12:52;100870.59;;;16.18;100.00
48553;BME280;34335;51.566;6.994;2023-05-11T08:15:17;100863.44;;;16.64;100.00
48553;BME280;34335;51.566;6.994;2023-05-11T08:17:43;100870.66;;;16.92;100.00
48553;BME280;34335;51.566;6.994;2023-05-11T08:20:10;100878.81;;;16.42;100.00
48553;BME280;34335;51.566;6.994;2023-05-11T08:22:35;100882.69;;;15.82;100.00
48553;BME280;34335;51.566;6.994;2023-05-11T08:25:01;100892.69;;;15.61;100.00
48553;BME280;34335;51.566;6.994;2023-05-11T08:27:27;100888.16;;;15.69;100.00
48553;BME280;34335;51.566;6.994;2023-05-11T08:29:53;100882.00;;;16.57;100.00
48553;BME280;34335;51.566;6.994;2023-05-11T08:32:19;100883.53;;;16.28;100.00
48553;BME280;34335;51.566;6.994;2023-05-11T08:34:45;100873.72;;;16.74;100.00
48553;BME280;34335;51.566;6.994;2023-05-11T08:37:10;100879.38;;;17.29;100.00
48553;BME280;34335;51.566;6.994;2023-05-11T08:39:35;100885.44;;;16.19;100.00
48553;BME280;34335;51.566;6.994;2023-05-11T08:42:02;100889.34;;;16.00;100.00
48553;BME280;34335;51.566;6.994;2023-05-11T08:44:31;100871.97;;;16.74;100.00
48553;BME280;34335;51.566;6.994;2023-05-11T08:46:57;100876.50;;;16.30;100.00
48553;BME280;34335;51.566;6.994;2023-05-11T08:49:24;100880.59;;;16.40;100.00
48553;BME280;34335;51.566;6.994;2023-05-11T08:51:49;100881.00;;;16.61;100.00
48553;BME280;34335;51.566;6.994;2023-05-11T08:54:15;100882.41;;;16.77;100.00
48553;BME280;34335;51.566;6.994;2023-05-11T08:56:40;100889.72;;;16.63;100.00
48553;BME280;34335;51.566;6.994;2023-05-11T08:59:07;100896.03;;;16.56;100.00
48553;BME280;34335;51.566;6.994;2023-05-11T09:01:34;100889.50;;;16.72;100.00
48553;BME280;34335;51.566;6.994;2023-05-11T09:04:00;100887.06;;;17.02;100.00
48553;BME280;34335;51.566;6.994;2023-05-11T09:06:26;100889.34;;;17.16;100.00
48553;BME280;34335;51.566;6.994;2023-05-11T09:08:52;100886.72;;;16.80;100.00
48553;BME280;34335;51.566;6.994;2023-05-11T09:11:18;100886.56;;;16.86;100.00
48553;BME280;34335;51.566;6.994;2023-05-11T09:13:43;100883.44;;;16.70;100.00
48553;BME280;34335;51.566;6.994;2023-05-11T09:16:09;100900.97;;;16.30;100.00
48553;BME280;34335;51.566;6.994;2023-05-11T09:18:35;100891.22;;;16.35;100.00
48553;BME280;34335;51.566;6.994;2023-05-11T09:21:00;100896.25;;;16.06;100.00
48553;BME280;34335;51.566;6.994;2023-05-11T09:23:31;100903.84;;;16.59;100.00
48553;BME280;34335;51.566;6.994;2023-05-11T09:25:56;100891.19;;;17.12;100.00
48553;BME280;34335;51.566;6.994;2023-05-11T09:28:25;100894.78;;;17.08;100.00
48553;BME280;34335;51.566;6.994;2023-05-11T09:30:51;100891.25;;;16.73;100.00
48553;BME280;34335;51.566;6.994;2023-05-11T09:33:21;100905.53;;;15.75;100.00
48553;BME280;34335;51.566;6.994;2023-05-11T09:35:48;100887.19;;;16.20;100.00
48553;BME280;34335;51.566;6.994;2023-05-11T09:38:14;100883.88;;;16.89;100.00
48553;BME280;34335;51.566;6.994;2023-05-11T09:40:48;100886.63;;;16.45;100.00
48553;BME280;34335;51.566;6.994;2023-05-11T09:43:29;100881.41;;;16.83;100.00
48553;BME280;34335;51.566;6.994;2023-05-11T09:45:56;100881.78;;;16.66;100.00
48553;BME280;34335;51.566;6.994;2023-05-11T09:50:57;100877.16;;;16.77;100.00
48553;BME280;34335;51.566;6.994;2023-05-11T09:53:33;100888.16;;;16.92;100.00
48553;BME280;34335;51.566;6.994;2023-05-11T09:55:59;100886.00;;;17.09;100.00
48553;BME280;34335;51.566;6.994;2023-05-11T09:58:25;100884.41;;;17.38;100.00
48553;BME280;34335;51.566;6.994;2023-05-11T10:00:51;100885.84;;;17.50;100.00
48553;BME280;34335;51.566;6.994;2023-05-11T10:03:18;100882.09;;;17.59;100.00
48553;BME280;34335;51.566;6.994;2023-05-11T10:06:04;100886.69;;;17.51;100.00
48553;BME280;34335;51.566;6.994;2023-05-11T10:08:31;100892.06;;;17.13;100.00
48553;BME280;34335;51.566;6.994;2023-05-11T10:11:00;100889.41;;;16.77;100.00
48553;BME280;34335;51.566;6.994;2023-05-11T10:13:26;100894.16;;;17.66;100.00
48553;BME280;34335;51.566;6.994;2023-05-11T10:15:53;100889.84;;;17.97;100.00
48553;BME280;34335;51.566;6.994;2023-05-11T10:18:19;100891.19;;;18.12;100.00
48553;BME280;34335;51.566;6.994;2023-05-11T10:20:45;100886.84;;;17.11;100.00
48553;BME280;34335;51.566;6.994;2023-05-11T10:23:10;100880.56;;;17.17;100.00
48553;BME280;34335;51.566;6.994;2023-05-11T10:25:37;100884.53;;;16.60;100.00
48553;BME280;34335;51.566;6.994;2023-05-11T10:28:03;100880.38;;;17.25;100.00
48553;BME280;34335;51.566;6.994;2023-05-11T10:30:29;100874.28;;;17.56;100.00
48553;BME280;34335;51.566;6.994;2023-05-11T10:32:54;100871.81;;;17.83;100.00
48553;BME280;34335;51.566;6.994;2023-05-11T10:35:21;100870.81;;;17.55;100.00
48553;BME280;34335;51.566;6.994;2023-05-11T10:37:47;100878.78;;;17.18;100.00
48553;BME280;34335;51.566;6.994;2023-05-11T10:40:12;100884.25;;;17.10;100.00
48553;BME280;34335;51.566;6.994;2023-05-11T10:43:08;100881.69;;;17.74;100.00
48553;BME280;34335;51.566;6.994;2023-05-11T10:46:03;100882.59;;;17.73;100.00
48553;BME280;34335;51.566;6.994;2023-05-11T10:48:55;100871.16;;;18.06;100.00
48553;BME280;34335;51.566;6.994;2023-05-11T10:51:45;100875.69;;;17.69;100.00
48553;BME280;34335;51.566;6.994;2023-05-11T10:57:12;100886.59;;;17.21;100.00
48553;BME280;34335;51.566;6.994;2023-05-11T11:02:20;100885.53;;;16.93;100.00
48553;BME280;34335;51.566;6.994;2023-05-11T11:04:48;100877.06;;;16.80;100.00
48553;BME280;34335;51.566;6.994;2023-05-11T11:07:14;100879.94;;;17.07;100.00
48553;BME280;34335;51.566;6.994;2023-05-11T11:12:17;100880.53;;;17.19;100.00
48553;BME280;34335;51.566;6.994;2023-05-11T11:15:00;100881.69;;;17.74;100.00
48553;BME280;34335;51.566;6.994;2023-05-11T11:17:28;100885.03;;;17.13;100.00
48553;BME280;34335;51.566;6.994;2023-05-11T11:19:57;100882.16;;;17.56;100.00
48553;BME280;34335;51.566;6.994;2023-05-11T11:25:10;100882.22;;;17.21;100.00
48553;BME280;34335;51.566;6.994;2023-05-11T11:32:46;100884.00;;;16.45;100.00
48553;BME280;34335;51.566;6.994;2023-05-11T11:38:04;100877.72;;;16.89;100.00
48553;BME280;34335;51.566;6.994;2023-05-11T11:40:41;100874.50;;;17.48;100.00
48553;BME280;34335;51.566;6.994;2023-05-11T11:45:37;100874.75;;;16.68;100.00
48553;BME280;34335;51.566;6.994;2023-05-11T11:48:07;100880.41;;;16.10;100.00
48553;BME280;34335;51.566;6.994;2023-05-11T11:50:33;100886.19;;;17.03;100.00
48553;BME280;34335;51.566;6.994;2023-05-11T11:52:58;100884.25;;;17.10;100.00
48553;BME280;34335;51.566;6.994;2023-05-11T11:58:12;100880.97;;;17.02;100.00
48553;BME280;34335;51.566;6.994;2023-05-11T12:00:38;100887.34;;;17.59;100.00
48553;BME280;34335;51.566;6.994;2023-05-11T12:03:04;100881.63;;;16.72;100.00
48553;BME280;34335;51.566;6.994;2023-05-11T12:05:31;100881.59;;;17.11;100.00
48553;BME280;34335;51.566;6.994;2023-05-11T12:08:04;100889.00;;;17.30;100.00
48553;BME280;34335;51.566;6.994;2023-05-11T12:10:30;100888.41;;;17.19;100.00
48553;BME280;34335;51.566;6.994;2023-05-11T12:12:55;100888.19;;;17.61;100.00
48553;BME280;34335;51.566;6.994;2023-05-11T12:15:30;100875.97;;;16.89;100.00
48553;BME280;34335;51.566;6.994;2023-05-11T12:17:58;100873.88;;;17.38;100.00
48553;BME280;34335;51.566;6.994;2023-05-11T12:20:26;100882.31;;;16.43;100.00
48553;BME280;34335;51.566;6.994;2023-05-11T12:22:52;100875.75;;;16.23;100.00
48553;BME280;34335;51.566;6.994;2023-05-11T12:25:18;100867.31;;;16.86;100.00
48553;BME280;34335;51.566;6.994;2023-05-11T12:27:55;100863.06;;;16.44;100.00
48553;BME280;34335;51.566;6.994;2023-05-11T12:30:28;100863.50;;;16.99;100.00
48553;BME280;34335;51.566;6.994;2023-05-11T12:32:54;100860.81;;;17.02;100.00
48553;BME280;34335;51.566;6.994;2023-05-11T12:35:23;100854.69;;;16.64;100.00
48553;BME280;34335;51.566;6.994;2023-05-11T12:37:49;100846.56;;;16.75;100.00
48553;BME280;34335;51.566;6.994;2023-05-11T12:40:16;100843.75;;;16.45;100.00
48553;BME280;34335;51.566;6.994;2023-05-11T12:42:51;100845.28;;;16.16;100.00
48553;BME280;34335;51.566;6.994;2023-05-11T12:45:19;100848.41;;;16.71;100.00
48553;BME280;34335;51.566;6.994;2023-05-11T12:47:46;100852.03;;;16.28;100.00
48553;BME280;34335;51.566;6.994;2023-05-11T12:50:12;100849.88;;;16.83;100.00
48553;BME280;34335;51.566;6.994;2023-05-11T12:52:37;100845.03;;;16.66;100.00
48553;BME280;34335;51.566;6.994;2023-05-11T12:55:03;100853.94;;;17.31;100.00
48553;BME280;34335;51.566;6.994;2023-05-11T12:57:29;100857.78;;;17.51;100.00
48553;BME280;34335;51.566;6.994;2023-05-11T13:00:24;100852.00;;;17.69;100.00
48553;BME280;34335;51.566;6.994;2023-05-11T13:02:53;100856.19;;;17.76;100.00
48553;BME280;34335;51.566;6.994;2023-05-11T13:05:23;100852.28;;;17.60;100.00
48553;BME280;34335;51.566;6.994;2023-05-11T13:08:02;100863.75;;;17.56;100.00
48553;BME280;34335;51.566;6.994;2023-05-11T13:10:27;100854.34;;;18.12;100.00